Terminal Aerodrome Forecast
Issued by NWS

Home | Current Version | Previous Version | Text Only | Print | Product List | Glossary On
Versions: 1 2 3 4 5 6 7 8 9 10 11 12 13 14 15 16 17
063
FTUS44 KLZK 202333
TAFPBF
TAF
KPBF 202333Z 2100/2124 08008G15KT P6SM SCT250
     FM210100 09006KT P6SM SCT250
     FM211400 10008KT P6SM OVC250
     FM211600 11009G15KT P6SM OVC250
     FM212000 13010G20KT P6SM VCSH SCT050 OVC250
     FM212300 13010G20KT P6SM VCTS SCT050CB BKN100 OVC250=

USA.gov is the U.S. government's official web portal to all federal, state and local government web resources and services.